Time;durP1;ratioP1;P1;durP2;ratioP2;P2;SDS_P1;SDS_P2;PMS_P1;PMS_P2;Temp;Humidity;BMP_temperature;BMP_pressure;BME280_temperature;BME280_humidity;BME280_pressure;Samples;Min_cycle;Max_cycle;Signal;HPM_P1;HPM_P2
2022/09/23 00:02:52;;;;;;;1.10;0.70;;;24.00;44.60;;;;;;6156997;28;20153;-56
2022/09/23 00:05:59;;;;;;;0.73;0.60;;;23.90;44.60;;;;;;6154961;28;20042;-53
2022/09/23 00:09:00;;;;;;;1.20;0.70;;;23.50;44.40;;;;;;6154469;28;20095;-54
2022/09/23 00:12:02;;;;;;;1.15;0.60;;;23.80;44.60;;;;;;6152435;28;20245;-53
2022/09/23 00:15:10;;;;;;;1.27;0.52;;;23.80;44.60;;;;;;6152055;28;20870;-55
2022/09/23 00:18:12;;;;;;;0.95;0.63;;;23.70;44.60;;;;;;6156199;28;20038;-54
2022/09/23 00:21:14;;;;;;;0.90;0.60;;;23.80;44.70;;;;;;6138719;28;20050;-56
2022/09/23 00:24:15;;;;;;;1.00;0.60;;;23.70;44.70;;;;;;6154640;28;20048;-55
2022/09/23 00:27:19;;;;;;;1.00;0.65;;;23.80;44.80;;;;;;6155306;28;20125;-54
2022/09/23 00:30:22;;;;;;;0.50;0.50;;;23.80;44.80;;;;;;6154647;28;20155;-55
2022/09/23 00:33:24;;;;;;;1.08;0.77;;;23.70;44.80;;;;;;6156044;28;20045;-55
2022/09/23 00:36:25;;;;;;;;;;;23.70;44.80;;;;;;6152028;28;20080;-55
2022/09/23 00:39:27;;;;;;;0.77;0.60;;;23.70;44.80;;;;;;6152599;28;19936;-55
2022/09/23 00:42:31;;;;;;;0.93;0.63;;;23.70;44.80;;;;;;6155868;28;20124;-52
2022/09/23 00:45:34;;;;;;;0.80;0.50;;;23.70;44.90;;;;;;6156161;28;20089;-53
2022/09/23 00:48:38;;;;;;;0.88;0.70;;;23.70;45.00;;;;;;6158871;28;20958;-57
2022/09/23 00:51:50;;;;;;;0.82;0.70;;;23.70;44.90;;;;;;6154659;28;20053;-54
2022/09/23 00:54:54;;;;;;;1.27;0.60;;;23.50;44.90;;;;;;6162617;28;20137;-54
2022/09/23 00:57:58;;;;;;;1.00;0.60;;;23.70;45.00;;;;;;6162555;28;21070;-57
2022/09/23 01:01:01;;;;;;;0.82;0.60;;;23.60;45.00;;;;;;6137692;28;20038;-54
2022/09/23 01:04:03;;;;;;;0.90;0.50;;;23.50;45.00;;;;;;6156729;28;20038;-53
2022/09/23 01:07:04;;;;;;;0.70;0.50;;;23.50;45.10;;;;;;6153989;28;20180;-55
2022/09/23 01:10:08;;;;;;;0.73;0.73;;;23.50;45.70;;;;;;6134796;28;20120;-55
2022/09/23 01:13:20;;;;;;;0.50;0.40;;;23.40;45.00;;;;;;6154933;28;20116;-57
2022/09/23 01:16:32;;;;;;;1.15;0.73;;;23.60;45.20;;;;;;6157440;28;20145;-54
2022/09/23 01:19:56;;;;;;;0.73;0.50;;;23.70;45.20;;;;;;6156049;28;20041;-56
2022/09/23 01:23:20;;;;;;;1.08;0.50;;;23.40;45.10;;;;;;6143174;28;20070;-56
2022/09/23 01:26:47;;;;;;;0.95;0.40;;;23.70;45.40;;;;;;6158840;28;20057;-56
2022/09/23 01:30:15;;;;;;;0.63;0.50;;;23.50;45.20;;;;;;6140184;28;20817;-55
2022/09/23 01:33:24;;;;;;;1.00;0.52;;;23.60;45.30;;;;;;6155347;28;20038;-54
2022/09/23 01:36:33;;;;;;;1.15;0.40;;;23.30;45.20;;;;;;6159587;28;20579;-55
2022/09/23 01:39:39;;;;;;;0.68;0.32;;;23.60;45.30;;;;;;6161525;28;20092;-56
2022/09/23 01:42:45;;;;;;;0.50;0.43;;;23.30;45.20;;;;;;6160991;28;20995;-54
2022/09/23 01:45:55;;;;;;;0.65;0.50;;;23.60;45.40;;;;;;6159683;28;21215;-52
2022/09/23 01:49:01;;;;;;;0.82;0.60;;;23.50;58.00;;;;;;6164951;28;20092;-53
2022/09/23 01:52:08;;;;;;;1.23;0.52;;;24.20;45.70;;;;;;6144431;28;20045;-53
2022/09/23 01:55:19;;;;;;;0.80;0.50;;;23.60;45.40;;;;;;6156212;28;20048;-55
2022/09/23 01:58:25;;;;;;;0.75;0.57;;;23.50;45.40;;;;;;6159706;28;20137;-56
2022/09/23 02:01:33;;;;;;;0.50;0.40;;;23.50;45.40;;;;;;6141382;28;20180;-55
2022/09/23 02:04:44;;;;;;;0.50;0.50;;;23.60;45.50;;;;;;6149874;28;21288;-54
2022/09/23 02:07:50;;;;;;;0.50;0.32;;;23.30;45.40;;;;;;6149827;28;20767;-53
2022/09/23 02:10:57;;;;;;;0.70;0.30;;;23.50;45.50;;;;;;6148609;28;21307;-52
2022/09/23 02:14:02;;;;;;;0.73;0.50;;;23.60;45.60;;;;;;6147335;28;20157;-49
2022/09/23 02:17:09;;;;;;;0.68;0.47;;;23.50;45.60;;;;;;6150482;28;20169;-52
2022/09/23 02:20:14;;;;;;;0.40;0.40;;;23.30;45.50;;;;;;6149429;28;20046;-52
2022/09/23 02:23:20;;;;;;;0.75;0.50;;;23.60;45.70;;;;;;6133618;28;20807;-50
2022/09/23 02:26:27;;;;;;;0.82;0.63;;;23.60;45.70;;;;;;6146856;28;20060;-53
2022/09/23 02:29:37;;;;;;;0.57;0.50;;;23.60;45.70;;;;;;6137072;28;20301;-54
2022/09/23 02:32:49;;;;;;;0.50;0.40;;;23.50;45.70;;;;;;6147315;28;20042;-50
2022/09/23 02:35:57;;;;;;;0.40;0.30;;;23.40;45.70;;;;;;6149810;28;20493;-54
2022/09/23 02:39:01;;;;;;;0.93;0.70;;;23.20;45.60;;;;;;6141223;28;21254;-53
2022/09/23 02:42:08;;;;;;;0.70;0.50;;;23.30;45.70;;;;;;6135171;28;20144;-52
2022/09/23 02:45:10;;;;;;;0.80;0.40;;;23.10;46.20;;;;;;6153158;28;20048;-54
2022/09/23 02:48:19;;;;;;;0.70;0.47;;;23.50;45.80;;;;;;6154488;28;20046;-54
2022/09/23 02:51:24;;;;;;;0.45;0.40;;;23.20;45.60;;;;;;6152717;28;20042;-50
2022/09/23 02:54:28;;;;;;;0.40;0.40;;;23.30;45.80;;;;;;6150097;28;20546;-53
2022/09/23 02:57:29;;;;;;;0.47;0.32;;;23.40;45.90;;;;;;6152923;28;20589;-52
2022/09/23 03:00:41;;;;;;;0.30;0.30;;;23.30;45.90;;;;;;6149106;28;20471;-53
2022/09/23 03:03:48;;;;;;;0.80;0.40;;;23.20;45.80;;;;;;6150285;28;20245;-53
2022/09/23 03:07:01;;;;;;;0.63;0.40;;;23.30;45.90;;;;;;6132642;28;20132;-54
2022/09/23 03:10:08;;;;;;;0.35;0.30;;;23.20;45.80;;;;;;6149164;28;20151;-54
2022/09/23 03:13:16;;;;;;;0.40;0.30;;;23.30;45.90;;;;;;6154187;28;21062;-53
2022/09/23 03:16:26;;;;;;;0.45;0.40;;;23.20;45.80;;;;;;6154256;28;20077;-50
2022/09/23 03:19:32;;;;;;;0.40;0.32;;;23.30;45.90;;;;;;6148362;28;20228;-51
2022/09/23 03:22:40;;;;;;;0.50;0.20;;;23.50;46.00;;;;;;6152547;28;20345;-53
2022/09/23 03:25:46;;;;;;;0.75;0.40;;;23.10;45.80;;;;;;6133069;28;20061;-54
2022/09/23 03:28:49;;;;;;;0.38;0.30;;;23.10;45.90;;;;;;6151024;28;20730;-52
2022/09/23 03:31:52;;;;;;;0.40;0.30;;;23.40;46.00;;;;;;6146397;28;20054;-53
2022/09/23 03:34:57;;;;;;;0.60;0.40;;;23.40;46.00;;;;;;6153246;28;20812;-53
2022/09/23 03:38:10;;;;;;;0.73;0.50;;;23.40;46.10;;;;;;6110136;28;20699;-52
2022/09/23 03:41:15;;;;;;;0.45;0.38;;;23.40;46.10;;;;;;6150245;28;20219;-51
2022/09/23 03:44:18;;;;;;;0.55;0.40;;;23.40;46.10;;;;;;6133181;28;20424;-53
2022/09/23 03:47:20;;;;;;;0.40;0.40;;;23.30;46.10;;;;;;6149945;28;20524;-51
2022/09/23 03:50:22;;;;;;;1.35;0.30;;;22.80;45.70;;;;;;6145992;28;20187;-50
2022/09/23 03:53:24;;;;;;;0.50;0.40;;;23.30;46.10;;;;;;6150730;28;20710;-53
2022/09/23 03:56:26;;;;;;;0.40;0.30;;;23.20;46.00;;;;;;6150455;28;20053;-55
2022/09/23 03:59:29;;;;;;;0.50;0.40;;;23.10;46.00;;;;;;6155636;28;20228;-54
2022/09/23 04:02:31;;;;;;;0.40;0.30;;;23.10;46.00;;;;;;6138874;28;20100;-54
2022/09/23 04:05:32;;;;;;;0.40;0.30;;;23.00;45.90;;;;;;6157007;28;20113;-56
2022/09/23 04:08:34;;;;;;;;;;;23.20;46.00;;;;;;6152705;28;20498;-53
2022/09/23 04:11:36;;;;;;;0.40;0.30;;;23.10;46.00;;;;;;6151725;28;21046;-52
2022/09/23 04:14:37;;;;;;;0.40;0.32;;;23.10;46.00;;;;;;6150866;28;20046;-53
2022/09/23 04:17:39;;;;;;;0.68;0.57;;;23.20;46.10;;;;;;6147728;28;20422;-54
2022/09/23 04:20:41;;;;;;;0.52;0.40;;;23.40;46.20;;;;;;6145248;28;20747;-50
2022/09/23 04:23:44;;;;;;;0.52;0.30;;;23.50;46.30;;;;;;6143151;28;20052;-54
2022/09/23 04:26:50;;;;;;;0.40;0.40;;;23.20;46.10;;;;;;6141616;28;20160;-53
2022/09/23 04:29:55;;;;;;;0.50;0.40;;;22.80;45.90;;;;;;6146021;28;20204;-53
2022/09/23 04:32:56;;;;;;;0.50;0.47;;;22.90;46.00;;;;;;6146717;28;20219;-53
2022/09/23 04:35:58;;;;;;;;;;;23.30;46.20;;;;;;6147785;28;20042;-53
2022/09/23 04:39:00;;;;;;;0.70;0.40;;;23.40;46.30;;;;;;6150072;28;20602;-52
2022/09/23 04:42:02;;;;;;;0.40;0.40;;;23.20;46.10;;;;;;6144618;28;20304;-53
2022/09/23 04:45:04;;;;;;;0.40;0.40;;;23.30;46.20;;;;;;6142759;28;20435;-51
2022/09/23 04:48:08;;;;;;;0.40;0.30;;;23.50;46.30;;;;;;6148117;28;20464;-52
2022/09/23 04:51:12;;;;;;;0.50;0.32;;;23.10;46.20;;;;;;6136013;28;20404;-54
2022/09/23 04:54:14;;;;;;;0.47;0.38;;;23.20;46.30;;;;;;6123263;28;20123;-53
2022/09/23 04:57:15;;;;;;;0.50;0.40;;;23.10;46.20;;;;;;6146172;28;20909;-54
2022/09/23 05:00:17;;;;;;;0.70;0.40;;;23.20;46.20;;;;;;6139548;28;20123;-53
2022/09/23 05:03:18;;;;;;;0.50;0.30;;;22.80;46.00;;;;;;6141812;28;20041;-51
2022/09/23 05:06:20;;;;;;;;;;;23.20;46.30;;;;;;6151471;28;20042;-57
2022/09/23 05:09:22;;;;;;;0.70;0.40;;;23.30;46.40;;;;;;6137025;28;20718;-55
2022/09/23 05:12:24;;;;;;;0.30;0.30;;;23.00;46.20;;;;;;6145770;28;20679;-56
2022/09/23 05:15:25;;;;;;;;;;;23.20;46.50;;;;;;6145424;28;20399;-52
2022/09/23 05:18:27;;;;;;;0.52;0.40;;;23.30;46.50;;;;;;6136108;28;19930;-52
2022/09/23 05:21:29;;;;;;;0.40;0.30;;;23.30;46.40;;;;;;6138720;28;20048;-51
2022/09/23 05:24:34;;;;;;;0.70;0.40;;;23.20;46.50;;;;;;6148025;28;20137;-55
2022/09/23 05:27:35;;;;;;;0.95;0.40;;;22.90;46.30;;;;;;6143158;28;20049;-54
2022/09/23 05:45:20;;;;;;;0.63;0.50;;;23.00;46.30;;;;;;6147579;28;20042;-50
2022/09/23 05:48:24;;;;;;;0.95;0.65;;;23.30;46.70;;;;;;6140185;28;20956;-52
2022/09/23 05:51:27;;;;;;;0.40;0.32;;;22.90;46.50;;;;;;6149026;28;20037;-55
2022/09/23 05:54:32;;;;;;;0.70;0.60;;;23.10;46.60;;;;;;6141346;28;20045;-54
2022/09/23 05:57:37;;;;;;;1.30;0.30;;;23.00;46.60;;;;;;6151420;28;20896;-55
2022/09/23 06:00:40;;;;;;;0.57;0.40;;;23.20;46.70;;;;;;6146796;28;21440;-54
2022/09/23 06:03:45;;;;;;;0.55;0.43;;;22.80;46.60;;;;;;6143711;28;22247;-55
2022/09/23 06:06:46;;;;;;;0.50;0.45;;;23.30;46.80;;;;;;6137647;28;20046;-55
2022/09/23 06:09:47;;;;;;;;;;;23.10;46.80;;;;;;6143184;28;20128;-55
2022/09/23 06:12:49;;;;;;;0.60;0.40;;;23.00;46.70;;;;;;6139857;28;20044;-56
2022/09/23 06:15:59;;;;;;;;;;;23.20;46.80;;;;;;6135154;28;20064;-55
2022/09/23 06:19:04;;;;;;;0.50;0.50;;;22.70;46.60;;;;;;6134909;28;20392;-54
2022/09/23 06:22:07;;;;;;;1.13;0.63;;;23.10;46.70;;;;;;6135773;28;20160;-54
2022/09/23 06:25:08;;;;;;;;;;;22.90;46.70;;;;;;6120044;28;20116;-53
2022/09/23 06:28:11;;;;;;;1.27;0.68;;;23.00;46.80;;;;;;6113206;28;20978;-53
2022/09/23 06:31:14;;;;;;;0.75;0.60;;;23.10;46.80;;;;;;6115051;28;20042;-53
2022/09/23 06:34:16;;;;;;;0.77;0.50;;;23.10;46.80;;;;;;6120481;28;20054;-53
2022/09/23 06:37:18;;;;;;;0.50;0.50;;;23.20;47.00;;;;;;6120137;28;20120;-56
2022/09/23 06:40:22;;;;;;;0.55;0.45;;;23.10;47.10;;;;;;6102069;28;20786;-53
2022/09/23 06:43:25;;;;;;;0.80;0.55;;;22.80;47.00;;;;;;6079514;28;20764;-55
2022/09/23 06:46:28;;;;;;;0.95;0.70;;;23.20;47.20;;;;;;6080644;28;20046;-53
2022/09/23 06:49:30;;;;;;;0.63;0.50;;;23.10;47.20;;;;;;6072459;28;20076;-54
2022/09/23 06:52:31;;;;;;;0.70;0.52;;;23.10;47.30;;;;;;6055057;28;20168;-55
2022/09/23 06:55:33;;;;;;;1.27;0.40;;;23.20;47.40;;;;;;6008262;28;20918;-56
2022/09/23 06:58:36;;;;;;;1.48;0.50;;;23.20;47.40;;;;;;6062447;28;20049;-55
2022/09/23 07:01:46;;;;;;;0.90;0.52;;;23.40;47.50;;;;;;5994738;28;20169;-52
2022/09/23 07:04:47;;;;;;;0.70;0.60;;;23.20;47.40;;;;;;6039225;28;20046;-55
2022/09/23 07:07:49;;;;;;;1.05;0.70;;;23.20;47.40;;;;;;6013652;28;20034;-54
2022/09/23 07:10:52;;;;;;;0.55;0.50;;;22.60;47.20;;;;;;6020792;28;20065;-55
2022/09/23 07:13:53;;;;;;;0.80;0.63;;;23.30;47.40;;;;;;5998761;28;20048;-54
2022/09/23 07:16:58;;;;;;;0.80;0.60;;;23.50;47.70;;;;;;6019590;28;20046;-53
2022/09/23 07:20:00;;;;;;;1.83;0.85;;;23.30;47.50;;;;;;6013226;28;20119;-53
2022/09/23 07:23:02;;;;;;;0.70;0.60;;;23.70;47.70;;;;;;6001217;28;20053;-54
2022/09/23 07:26:04;;;;;;;;;;;23.20;47.40;;;;;;6008345;28;20038;-54
2022/09/23 07:29:06;;;;;;;0.80;0.68;;;23.30;47.60;;;;;;5977918;28;19929;-54
2022/09/23 07:32:08;;;;;;;0.88;0.70;;;23.20;47.40;;;;;;5976614;28;20049;-54
2022/09/23 07:35:15;;;;;;;0.73;0.50;;;23.30;47.50;;;;;;6009368;28;20147;-55
2022/09/23 07:38:24;;;;;;;1.02;0.70;;;23.30;47.60;;;;;;5927941;28;20161;-55
2022/09/23 07:41:28;;;;;;;0.90;0.60;;;23.30;47.60;;;;;;5948041;28;20050;-54
2022/09/23 07:44:30;;;;;;;1.10;0.70;;;23.00;47.50;;;;;;5934302;28;20073;-53
2022/09/23 07:47:32;;;;;;;0.95;0.68;;;23.20;47.60;;;;;;5955311;28;20345;-51
2022/09/23 07:50:34;;;;;;;0.98;0.85;;;23.30;47.70;;;;;;5984745;28;21195;-53
2022/09/23 07:53:36;;;;;;;1.05;0.85;;;23.50;47.80;;;;;;5960704;28;20046;-53
2022/09/23 07:56:38;;;;;;;1.73;0.70;;;23.90;47.90;;;;;;5962357;28;20046;-55
2022/09/23 07:59:40;;;;;;;1.70;1.05;;;23.20;47.60;;;;;;5965757;28;20152;-55
2022/09/23 08:02:42;;;;;;;0.95;0.80;;;23.20;47.60;;;;;;5949158;28;20057;-54
2022/09/23 08:05:44;;;;;;;0.95;0.60;;;23.40;47.60;;;;;;5981119;28;20069;-53
2022/09/23 08:08:49;;;;;;;1.67;0.70;;;23.30;47.50;;;;;;5967205;28;20061;-54
2022/09/23 08:11:55;;;;;;;0.70;0.63;;;23.30;47.50;;;;;;5984283;28;20061;-50
2022/09/23 08:14:58;;;;;;;1.58;0.57;;;23.10;47.50;;;;;;5971258;28;22544;-49
2022/09/23 08:18:00;;;;;;;0.93;0.65;;;23.30;48.20;;;;;;5992074;28;20151;-53
2022/09/23 08:21:03;;;;;;;1.00;0.70;;;23.40;47.70;;;;;;5998981;28;20176;-51
2022/09/23 08:24:05;;;;;;;0.80;0.65;;;23.50;47.70;;;;;;6032887;28;20050;-49
2022/09/23 08:27:06;;;;;;;0.85;0.70;;;23.40;47.70;;;;;;5989378;28;21072;-49
2022/09/23 08:30:09;;;;;;;1.30;0.70;;;23.40;47.70;;;;;;6002330;28;23513;-50
2022/09/23 08:33:11;;;;;;;1.13;0.70;;;23.40;47.80;;;;;;5982608;28;20165;-51
2022/09/23 08:36:13;;;;;;;1.33;0.52;;;23.10;47.60;;;;;;6012663;28;20112;-53
2022/09/23 08:39:17;;;;;;;0.63;0.50;;;23.50;47.90;;;;;;5997848;28;20053;-53
2022/09/23 08:42:27;;;;;;;1.00;0.65;;;23.50;47.90;;;;;;5988512;28;20053;-52
2022/09/23 08:45:28;;;;;;;0.75;0.50;;;23.50;47.90;;;;;;6008600;28;20048;-47
2022/09/23 08:48:35;;;;;;;0.98;0.77;;;23.40;47.80;;;;;;5998707;28;20111;-52
2022/09/23 08:51:45;;;;;;;0.70;0.50;;;23.40;47.90;;;;;;5998458;28;21678;-51
2022/09/23 08:54:46;;;;;;;0.82;0.68;;;23.00;47.70;;;;;;5974551;28;20088;-50
2022/09/23 08:58:05;;;;;;;0.82;0.80;;;23.50;48.00;;;;;;5985120;28;20087;-51
2022/09/23 09:01:34;;;;;;;0.82;0.80;;;23.40;48.10;;;;;;5970419;28;20053;-52
2022/09/23 09:04:41;;;;;;;0.75;0.70;;;23.50;48.10;;;;;;5960873;28;20050;-52
2022/09/23 09:07:43;;;;;;;0.80;0.55;;;23.80;48.50;;;;;;5974513;28;20152;-53
2022/09/23 09:10:46;;;;;;;0.70;0.60;;;23.50;48.30;;;;;;5997921;28;21205;-52
2022/09/23 09:13:55;;;;;;;0.75;0.65;;;23.50;48.40;;;;;;6003999;28;20156;-53
2022/09/23 09:17:00;;;;;;;0.82;0.68;;;23.50;48.40;;;;;;5987653;28;20159;-48
2022/09/23 09:20:17;;;;;;;0.95;0.80;;;23.20;48.30;;;;;;5987939;28;20814;-49
2022/09/23 09:23:22;;;;;;;0.80;0.70;;;23.50;48.50;;;;;;6001493;28;20095;-51
2022/09/23 09:26:28;;;;;;;0.80;0.73;;;24.00;48.70;;;;;;5997182;28;20190;-50
2022/09/23 09:29:37;;;;;;;1.10;0.90;;;23.40;49.10;;;;;;5981210;28;20152;-50
2022/09/23 09:32:46;;;;;;;1.08;0.90;;;23.60;48.60;;;;;;5974686;28;21516;-51
2022/09/23 09:36:03;;;;;;;0.93;0.75;;;23.40;48.40;;;;;;6008167;28;20151;-52
2022/09/23 09:39:06;;;;;;;1.23;0.63;;;23.50;48.50;;;;;;6032048;28;20056;-51
2022/09/23 09:42:16;;;;;;;0.88;0.70;;;23.50;48.50;;;;;;6000923;28;20354;-48
2022/09/23 09:45:27;;;;;;;0.90;0.80;;;23.50;48.60;;;;;;5951361;28;20049;-52
2022/09/23 09:48:36;;;;;;;0.98;0.80;;;23.50;48.50;;;;;;5996623;28;20185;-52
2022/09/23 09:51:41;;;;;;;0.70;0.60;;;23.40;48.50;;;;;;5975183;28;20084;-51
2022/09/23 09:54:43;;;;;;;1.00;0.70;;;23.60;48.70;;;;;;5999996;28;20048;-52
2022/09/23 09:57:49;;;;;;;0.70;0.70;;;23.50;48.60;;;;;;6011535;28;20050;-49
2022/09/23 10:00:52;;;;;;;0.82;0.60;;;23.40;48.50;;;;;;6000010;28;20038;-47
2022/09/23 10:03:55;;;;;;;1.00;0.80;;;23.60;48.70;;;;;;6012450;28;20050;-48
2022/09/23 10:07:06;;;;;;;1.33;0.82;;;23.40;48.50;;;;;;5990693;28;20053;-50
2022/09/23 10:10:20;;;;;;;0.80;0.80;;;23.50;48.60;;;;;;5997285;28;20030;-53
2022/09/23 10:13:35;;;;;;;0.90;0.73;;;23.40;48.50;;;;;;5999940;28;20058;-48
2022/09/23 10:16:36;;;;;;;1.30;0.80;;;23.60;48.70;;;;;;6017165;28;21512;-49
2022/09/23 10:19:44;;;;;;;0.70;0.70;;;23.60;48.60;;;;;;6023898;28;20304;-49
2022/09/23 10:22:46;;;;;;;1.52;0.75;;;23.60;48.50;;;;;;6011511;28;20223;-47
2022/09/23 10:25:56;;;;;;;1.10;0.70;;;23.50;48.40;;;;;;6013521;28;20041;-47
2022/09/23 10:29:00;;;;;;;0.95;0.60;;;23.50;48.40;;;;;;6042657;28;21289;-51
2022/09/23 10:32:19;;;;;;;1.08;0.73;;;23.20;48.20;;;;;;6043473;28;20046;-48
2022/09/23 10:35:22;;;;;;;0.93;0.60;;;23.30;48.20;;;;;;6038124;28;21246;-50
2022/09/23 10:38:24;;;;;;;1.00;0.80;;;23.60;48.30;;;;;;6021884;28;20051;-51
2022/09/23 10:48:20;;;;;;;0.85;0.50;;;23.40;48.10;;;;;;6047849;28;20042;-49
2022/09/23 10:51:30;;;;;;;0.90;0.65;;;23.60;48.30;;;;;;6043519;28;20425;-46
2022/09/23 10:54:49;;;;;;;0.82;0.50;;;23.30;48.10;;;;;;6069934;28;20393;-49
2022/09/23 10:58:06;;;;;;;0.98;0.60;;;23.50;48.40;;;;;;6072384;28;20142;-48
2022/09/23 11:01:21;;;;;;;0.93;0.80;;;23.50;48.50;;;;;;6051743;28;21085;-48
2022/09/23 11:04:53;;;;;;;0.60;0.60;;;23.30;48.40;;;;;;6041955;28;20046;-47
2022/09/23 11:08:03;;;;;;;1.30;0.60;;;23.50;48.70;;;;;;6046064;28;20476;-52
2022/09/23 11:11:19;;;;;;;0.80;0.60;;;23.30;48.60;;;;;;6049511;28;20057;-48
2022/09/23 11:14:37;;;;;;;1.00;0.90;;;23.60;48.80;;;;;;6044990;28;20056;-49
2022/09/23 11:18:02;;;;;;;1.13;0.88;;;23.50;48.90;;;;;;6052403;28;20128;-50
2022/09/23 11:21:21;;;;;;;1.00;0.70;;;23.50;48.90;;;;;;6081145;28;20080;-48
2022/09/23 11:24:38;;;;;;;0.80;0.75;;;23.60;49.00;;;;;;6059505;28;20040;-51
2022/09/23 11:27:57;;;;;;;1.42;0.85;;;23.60;49.00;;;;;;6054628;28;20037;-49
2022/09/23 11:31:06;;;;;;;1.00;0.80;;;23.50;49.00;;;;;;6066529;28;20077;-51
2022/09/23 11:34:26;;;;;;;1.08;0.90;;;23.60;49.10;;;;;;6070069;28;20049;-48
2022/09/23 11:37:33;;;;;;;1.40;0.75;;;23.50;49.20;;;;;;6069279;28;20408;-49
2022/09/23 11:40:37;;;;;;;0.73;0.70;;;23.60;49.80;;;;;;6063111;28;20081;-48
2022/09/23 11:43:52;;;;;;;1.23;1.00;;;23.50;49.10;;;;;;6042549;28;20056;-47
2022/09/23 11:46:58;;;;;;;0.80;0.70;;;23.70;49.30;;;;;;6068228;28;20038;-48
2022/09/23 11:50:05;;;;;;;0.85;0.77;;;23.70;49.30;;;;;;6069132;28;20136;-47
2022/09/23 11:53:12;;;;;;;1.00;0.90;;;23.50;49.20;;;;;;6061566;28;20092;-48
2022/09/23 11:56:20;;;;;;;1.10;0.82;;;23.50;49.30;;;;;;6037430;28;20135;-48
2022/09/23 11:59:40;;;;;;;0.90;0.80;;;23.40;49.20;;;;;;6016377;28;20054;-50
2022/09/23 12:02:57;;;;;;;1.10;0.80;;;23.30;49.20;;;;;;5998336;28;20064;-50
2022/09/23 12:06:14;;;;;;;0.55;0.55;;;23.30;49.20;;;;;;6001184;28;20054;-48
2022/09/23 12:09:21;;;;;;;2.50;0.80;;;23.60;49.40;;;;;;6008823;28;20184;-48
2022/09/23 12:12:50;;;;;;;0.75;0.63;;;23.50;49.40;;;;;;5954912;28;21047;-47
2022/09/23 12:16:10;;;;;;;0.73;0.57;;;23.50;49.40;;;;;;6015909;28;20057;-49
2022/09/23 12:19:28;;;;;;;0.50;0.50;;;23.70;49.50;;;;;;6009839;28;20038;-51
2022/09/23 12:22:48;;;;;;;0.82;0.73;;;23.30;49.30;;;;;;5948812;28;20061;-49
2022/09/23 12:25:53;;;;;;;0.75;0.57;;;23.60;49.60;;;;;;6010447;28;20048;-49
2022/09/23 12:29:00;;;;;;;0.93;0.68;;;23.30;49.40;;;;;;6012126;28;20150;-47
2022/09/23 12:32:08;;;;;;;0.50;0.40;;;23.60;49.60;;;;;;5999206;28;20057;-47
2022/09/23 12:35:21;;;;;;;0.60;0.50;;;23.70;49.60;;;;;;5986675;28;20149;-49
2022/09/23 12:38:31;;;;;;;0.95;0.73;;;23.60;49.60;;;;;;5975689;28;20171;-49
2022/09/23 12:41:36;;;;;;;1.55;0.60;;;23.60;49.60;;;;;;6009434;28;20050;-52
2022/09/23 12:44:41;;;;;;;0.70;0.63;;;23.70;49.60;;;;;;6013196;28;20191;-46
2022/09/23 12:47:43;;;;;;;0.90;0.70;;;23.70;49.70;;;;;;5994270;28;20046;-47
2022/09/23 12:50:49;;;;;;;0.80;0.63;;;23.70;49.80;;;;;;6018688;28;20038;-50
2022/09/23 12:53:56;;;;;;;0.50;0.50;;;23.80;49.90;;;;;;6002947;28;20089;-48
2022/09/23 12:57:00;;;;;;;0.93;0.65;;;23.80;50.00;;;;;;6015730;28;20152;-47
2022/09/23 13:00:21;;;;;;;0.80;0.60;;;23.70;49.90;;;;;;5994563;28;20094;-48
2022/09/23 13:06:42;;;;;;;0.95;0.80;;;23.70;50.00;;;;;;6003705;28;21803;-51
2022/09/23 13:09:48;;;;;;;0.82;0.60;;;23.70;50.00;;;;;;5971020;28;20042;-53
2022/09/23 13:12:51;;;;;;;0.70;0.68;;;23.70;50.10;;;;;;5962630;28;20152;-52
2022/09/23 13:15:54;;;;;;;0.77;0.55;;;23.70;50.20;;;;;;5973266;28;21443;-48
2022/09/23 13:18:58;;;;;;;0.52;0.52;;;23.70;50.30;;;;;;5983229;28;20052;-52
2022/09/23 13:22:07;;;;;;;0.65;0.60;;;23.50;50.20;;;;;;5962274;28;20050;-48
2022/09/23 13:25:19;;;;;;;0.65;0.47;;;23.90;50.50;;;;;;5999887;28;20492;-47
2022/09/23 13:28:29;;;;;;;0.77;0.60;;;23.40;50.20;;;;;;5967101;28;20151;-52
2022/09/23 13:31:32;;;;;;;0.40;0.40;;;23.80;50.40;;;;;;5991320;28;20082;-48
2022/09/23 13:34:37;;;;;;;0.73;0.60;;;23.60;50.30;;;;;;6003467;28;20045;-48
2022/09/23 13:37:42;;;;;;;0.40;0.40;;;23.60;50.30;;;;;;5995054;28;20046;-47
2022/09/23 13:40:44;;;;;;;0.50;0.40;;;23.80;50.30;;;;;;5973807;28;20116;-46
2022/09/23 13:43:49;;;;;;;0.60;0.43;;;23.50;50.00;;;;;;6021610;28;20469;-49
2022/09/23 13:46:55;;;;;;;1.60;0.88;;;23.80;50.10;;;;;;6005334;28;22417;-48
2022/09/23 13:49:57;;;;;;;0.65;0.55;;;23.70;50.40;;;;;;5990058;28;20046;-55
2022/09/23 13:53:02;;;;;;;0.70;0.70;;;24.00;50.10;;;;;;6006781;28;23637;-49
2022/09/23 13:56:06;;;;;;;0.70;0.63;;;23.90;50.00;;;;;;5995382;28;21523;-50
2022/09/23 13:59:23;;;;;;;0.80;0.70;;;24.00;49.90;;;;;;5981926;28;20054;-50
2022/09/23 14:02:28;;;;;;;0.63;0.50;;;24.00;49.80;;;;;;5955704;28;20097;-50
2022/09/23 14:05:38;;;;;;;0.52;0.52;;;24.00;49.80;;;;;;6002597;28;20084;-53
2022/09/23 14:08:44;;;;;;;0.57;0.52;;;24.00;49.80;;;;;;5968691;28;20057;-53
2022/09/23 14:11:45;;;;;;;0.60;0.50;;;23.80;49.60;;;;;;5969855;28;22062;-52
2022/09/23 14:14:48;;;;;;;0.80;0.50;;;24.00;49.60;;;;;;6024434;28;20046;-49
2022/09/23 14:17:53;;;;;;;0.70;0.60;;;23.60;49.40;;;;;;5998442;28;20128;-51
2022/09/23 14:20:55;;;;;;;0.65;0.60;;;24.00;49.60;;;;;;5993671;28;20041;-50
2022/09/23 14:24:11;;;;;;;0.93;0.45;;;24.00;49.60;;;;;;6032667;28;21378;-49
2022/09/23 14:27:15;;;;;;;0.60;0.50;;;24.00;49.70;;;;;;5958280;28;20045;-51
2022/09/23 14:30:17;;;;;;;1.27;0.75;;;23.80;49.60;;;;;;5996733;28;20053;-51
2022/09/23 14:33:24;;;;;;;0.52;0.50;;;24.10;49.80;;;;;;6026951;28;21192;-52
2022/09/23 14:39:42;;;;;;;0.50;0.40;;;24.10;50.00;;;;;;6012505;28;21083;-52
2022/09/23 14:42:46;;;;;;;0.50;0.50;;;24.00;50.00;;;;;;5987499;28;20046;-51
2022/09/23 14:45:51;;;;;;;0.68;0.55;;;23.90;50.00;;;;;;6006420;28;20056;-51
2022/09/23 14:48:57;;;;;;;0.40;0.40;;;24.10;50.20;;;;;;5986664;28;20131;-51
2022/09/23 14:52:05;;;;;;;0.57;0.40;;;24.10;50.40;;;;;;6013213;28;20120;-54
2022/09/23 14:55:15;;;;;;;0.63;0.60;;;24.10;50.50;;;;;;6041117;28;20046;-50
2022/09/23 14:58:18;;;;;;;0.45;0.40;;;24.20;50.60;;;;;;6037881;28;20922;-52
2022/09/23 15:01:34;;;;;;;1.10;0.45;;;24.00;50.40;;;;;;6013945;28;21210;-50
2022/09/23 15:04:36;;;;;;;0.52;0.40;;;24.10;50.70;;;;;;6016578;28;20489;-50
2022/09/23 15:07:38;;;;;;;0.77;0.50;;;24.00;50.60;;;;;;6013128;28;20324;-49
2022/09/23 15:10:40;;;;;;;0.82;0.50;;;24.10;50.70;;;;;;6014690;28;20045;-49
2022/09/23 15:13:45;;;;;;;0.60;0.50;;;24.50;50.80;;;;;;6014589;28;20064;-52
2022/09/23 15:16:47;;;;;;;0.40;0.30;;;24.20;50.50;;;;;;6043040;28;20045;-49
2022/09/23 15:19:54;;;;;;;0.50;0.40;;;24.10;50.50;;;;;;6045025;28;20754;-53
2022/09/23 15:22:56;;;;;;;0.30;0.30;;;24.20;50.70;;;;;;6018025;28;20399;-53
2022/09/23 15:26:01;;;;;;;1.20;0.60;;;24.40;50.80;;;;;;6040257;28;20292;-49
2022/09/23 15:29:07;;;;;;;0.40;0.35;;;24.30;50.90;;;;;;6041791;28;20046;-49
2022/09/23 15:32:09;;;;;;;0.63;0.50;;;24.30;51.20;;;;;;6027054;28;20307;-47
2022/09/23 15:35:14;;;;;;;0.50;0.40;;;24.10;51.20;;;;;;6044103;28;20038;-54
2022/09/23 15:38:16;;;;;;;0.80;0.43;;;24.20;51.40;;;;;;6076833;28;21066;-51
2022/09/23 15:41:22;;;;;;;0.40;0.38;;;24.20;51.40;;;;;;6083028;28;20042;-51
2022/09/23 15:44:28;;;;;;;0.50;0.40;;;24.20;51.50;;;;;;6082885;28;20044;-54
2022/09/23 15:47:31;;;;;;;0.47;0.30;;;24.20;51.60;;;;;;6083234;28;20285;-50
2022/09/23 15:50:34;;;;;;;0.50;0.50;;;24.20;51.70;;;;;;6085675;28;20050;-53
2022/09/23 15:53:36;;;;;;;0.50;0.50;;;24.20;51.90;;;;;;6076826;28;20300;-51
2022/09/23 15:56:38;;;;;;;0.73;0.60;;;24.20;52.00;;;;;;6068024;28;20773;-48
2022/09/23 15:59:40;;;;;;;0.63;0.50;;;24.30;52.10;;;;;;6078465;28;20236;-49
2022/09/23 16:02:44;;;;;;;0.80;0.70;;;24.30;52.20;;;;;;6083507;28;20329;-49
2022/09/23 16:05:48;;;;;;;0.95;0.50;;;24.20;52.30;;;;;;6081090;28;21113;-48
2022/09/23 16:08:50;;;;;;;0.60;0.60;;;24.10;52.30;;;;;;6072373;28;20169;-47
2022/09/23 16:11:55;;;;;;;0.85;0.57;;;24.00;52.40;;;;;;6086169;28;20267;-46
2022/09/23 16:14:57;;;;;;;0.63;0.60;;;24.20;52.60;;;;;;6090476;28;20222;-47
2022/09/23 16:17:59;;;;;;;0.50;0.50;;;24.30;52.80;;;;;;6095028;28;20326;-48
2022/09/23 16:21:03;;;;;;;0.80;0.57;;;24.20;52.80;;;;;;6097752;28;20076;-47
2022/09/23 16:24:05;;;;;;;0.82;0.50;;;24.30;52.90;;;;;;6100382;28;20046;-46
2022/09/23 16:27:08;;;;;;;0.52;0.45;;;24.10;52.80;;;;;;6103149;28;20087;-47
2022/09/23 16:30:10;;;;;;;0.60;0.55;;;24.30;52.80;;;;;;6103127;28;20401;-47
2022/09/23 16:33:12;;;;;;;1.00;0.60;;;24.30;52.70;;;;;;6081843;28;20437;-47
2022/09/23 16:36:19;;;;;;;0.60;0.60;;;24.20;52.50;;;;;;6107430;28;20482;-46
2022/09/23 16:39:21;;;;;;;0.80;0.52;;;24.20;52.30;;;;;;6089734;28;20096;-46